sensor_id;sensor_type;location;lat;lon;timestamp;pressure;altitude;pressure_sealevel;temperature;humidity
18918;BME280;9591;52.742;13.650;2023-07-13T00:01:11;100757.19;;;18.20;100.00
18918;BME280;9591;52.742;13.650;2023-07-13T00:03:57;100739.81;;;18.13;100.00
18918;BME280;9591;52.742;13.650;2023-07-13T00:06:45;100750.16;;;18.05;100.00
18918;BME280;9591;52.742;13.650;2023-07-13T00:09:32;100746.13;;;17.84;100.00
18918;BME280;9591;52.742;13.650;2023-07-13T00:12:26;100752.56;;;17.81;100.00
18918;BME280;9591;52.742;13.650;2023-07-13T00:15:16;100719.44;;;17.68;100.00
18918;BME280;9591;52.742;13.650;2023-07-13T00:18:06;100754.66;;;17.90;100.00
18918;BME280;9591;52.742;13.650;2023-07-13T00:20:52;100760.97;;;17.75;100.00
18918;BME280;9591;52.742;13.650;2023-07-13T00:23:41;100741.75;;;17.83;100.00
18918;BME280;9591;52.742;13.650;2023-07-13T00:26:28;100748.53;;;17.88;100.00
18918;BME280;9591;52.742;13.650;2023-07-13T00:29:16;100746.22;;;17.82;100.00
18918;BME280;9591;52.742;13.650;2023-07-13T00:32:04;100744.78;;;17.77;100.00
18918;BME280;9591;52.742;13.650;2023-07-13T00:34:52;100754.41;;;17.65;100.00
18918;BME280;9591;52.742;13.650;2023-07-13T00:37:38;100743.97;;;17.46;100.00
18918;BME280;9591;52.742;13.650;2023-07-13T00:40:25;100745.69;;;17.47;100.00
18918;BME280;9591;52.742;13.650;2023-07-13T00:43:14;100729.72;;;17.31;100.00
18918;BME280;9591;52.742;13.650;2023-07-13T00:46:19;100762.19;;;17.40;100.00
18918;BME280;9591;52.742;13.650;2023-07-13T00:49:10;100754.53;;;17.33;100.00
18918;BME280;9591;52.742;13.650;2023-07-13T00:52:02;100747.00;;;17.26;100.00
18918;BME280;9591;52.742;13.650;2023-07-13T00:54:50;100741.41;;;17.15;100.00
18918;BME280;9591;52.742;13.650;2023-07-13T00:57:38;100743.28;;;16.98;100.00
18918;BME280;9591;52.742;13.650;2023-07-13T01:00:26;100738.06;;;17.11;100.00
18918;BME280;9591;52.742;13.650;2023-07-13T01:03:15;100741.88;;;17.07;100.00
18918;BME280;9591;52.742;13.650;2023-07-13T01:06:02;100736.25;;;17.12;100.00
18918;BME280;9591;52.742;13.650;2023-07-13T01:08:49;100737.91;;;16.98;100.00
18918;BME280;9591;52.742;13.650;2023-07-13T01:11:37;100737.09;;;16.82;100.00
18918;BME280;9591;52.742;13.650;2023-07-13T01:14:24;100740.34;;;16.87;100.00
18918;BME280;9591;52.742;13.650;2023-07-13T01:17:20;100750.19;;;16.87;100.00
18918;BME280;9591;52.742;13.650;2023-07-13T01:20:09;100745.88;;;16.84;100.00
18918;BME280;9591;52.742;13.650;2023-07-13T01:22:57;100746.22;;;16.78;100.00
18918;BME280;9591;52.742;13.650;2023-07-13T01:25:47;100736.38;;;16.63;100.00
18918;BME280;9591;52.742;13.650;2023-07-13T01:28:34;100740.03;;;16.46;100.00
18918;BME280;9591;52.742;13.650;2023-07-13T01:31:24;100748.81;;;16.48;100.00
18918;BME280;9591;52.742;13.650;2023-07-13T01:34:11;100756.16;;;16.45;100.00
18918;BME280;9591;52.742;13.650;2023-07-13T01:36:57;100754.66;;;16.55;100.00
18918;BME280;9591;52.742;13.650;2023-07-13T01:39:46;100758.63;;;16.63;100.00
18918;BME280;9591;52.742;13.650;2023-07-13T01:42:33;100763.63;;;16.54;100.00
18918;BME280;9591;52.742;13.650;2023-07-13T01:45:19;100765.19;;;16.58;100.00
18918;BME280;9591;52.742;13.650;2023-07-13T01:48:07;100760.53;;;16.61;100.00
18918;BME280;9591;52.742;13.650;2023-07-13T01:50:53;100749.25;;;16.56;100.00
18918;BME280;9591;52.742;13.650;2023-07-13T01:53:40;100744.84;;;16.55;100.00
18918;BME280;9591;52.742;13.650;2023-07-13T01:56:28;100744.88;;;16.71;100.00
18918;BME280;9591;52.742;13.650;2023-07-13T01:59:15;100743.81;;;16.58;100.00
18918;BME280;9591;52.742;13.650;2023-07-13T02:02:02;100757.78;;;16.63;100.00
18918;BME280;9591;52.742;13.650;2023-07-13T02:04:49;100746.66;;;16.55;100.00
18918;BME280;9591;52.742;13.650;2023-07-13T02:07:36;100754.41;;;16.59;100.00
18918;BME280;9591;52.742;13.650;2023-07-13T02:10:23;100753.22;;;16.65;100.00
18918;BME280;9591;52.742;13.650;2023-07-13T02:13:11;100759.34;;;16.67;100.00
18918;BME280;9591;52.742;13.650;2023-07-13T02:15:58;100766.75;;;16.78;100.00
18918;BME280;9591;52.742;13.650;2023-07-13T02:18:45;100759.94;;;16.88;100.00
18918;BME280;9591;52.742;13.650;2023-07-13T02:21:32;100760.28;;;16.97;100.00
18918;BME280;9591;52.742;13.650;2023-07-13T02:24:18;100757.31;;;17.02;100.00
18918;BME280;9591;52.742;13.650;2023-07-13T02:27:06;100760.28;;;16.97;100.00
18918;BME280;9591;52.742;13.650;2023-07-13T02:29:54;100765.88;;;16.93;100.00
18918;BME280;9591;52.742;13.650;2023-07-13T02:32:41;100772.59;;;17.00;100.00
18918;BME280;9591;52.742;13.650;2023-07-13T02:35:29;100770.88;;;16.99;100.00
18918;BME280;9591;52.742;13.650;2023-07-13T02:38:16;100772.69;;;16.98;100.00
18918;BME280;9591;52.742;13.650;2023-07-13T02:41:03;100774.50;;;16.98;100.00
18918;BME280;9591;52.742;13.650;2023-07-13T02:43:51;100770.53;;;17.05;100.00
18918;BME280;9591;52.742;13.650;2023-07-13T02:46:39;100765.88;;;16.93;100.00
18918;BME280;9591;52.742;13.650;2023-07-13T02:49:26;100757.31;;;17.02;100.00
18918;BME280;9591;52.742;13.650;2023-07-13T02:52:13;100760.72;;;16.90;100.00
18918;BME280;9591;52.742;13.650;2023-07-13T02:55:00;100773.06;;;16.92;100.00
18918;BME280;9591;52.742;13.650;2023-07-13T02:57:47;100777.56;;;16.76;100.00
18918;BME280;9591;52.742;13.650;2023-07-13T03:00:38;100774.63;;;16.81;100.00
18918;BME280;9591;52.742;13.650;2023-07-13T03:03:28;100764.00;;;16.79;100.00
18918;BME280;9591;52.742;13.650;2023-07-13T03:06:15;100774.69;;;16.48;100.00
18918;BME280;9591;52.742;13.650;2023-07-13T03:09:07;100782.28;;;16.39;100.00
18918;BME280;9591;52.742;13.650;2023-07-13T03:11:58;100790.22;;;16.41;100.00
18918;BME280;9591;52.742;13.650;2023-07-13T03:14:48;100796.34;;;16.43;100.00
18918;BME280;9591;52.742;13.650;2023-07-13T03:17:35;100800.03;;;16.41;100.00
18918;BME280;9591;52.742;13.650;2023-07-13T03:20:23;100806.50;;;16.36;100.00
18918;BME280;9591;52.742;13.650;2023-07-13T03:23:10;100797.72;;;16.34;100.00
18918;BME280;9591;52.742;13.650;2023-07-13T03:26:02;100800.28;;;16.52;100.00
18918;BME280;9591;52.742;13.650;2023-07-13T03:28:51;100792.97;;;16.55;100.00
18918;BME280;9591;52.742;13.650;2023-07-13T03:31:41;100802.97;;;16.52;100.00
18918;BME280;9591;52.742;13.650;2023-07-13T03:34:28;100798.34;;;16.71;100.00
18918;BME280;9591;52.742;13.650;2023-07-13T03:37:16;100800.50;;;16.64;100.00
18918;BME280;9591;52.742;13.650;2023-07-13T03:40:04;100799.59;;;16.64;100.00
18918;BME280;9591;52.742;13.650;2023-07-13T03:42:54;100796.06;;;16.63;100.00
18918;BME280;9591;52.742;13.650;2023-07-13T03:45:40;100794.78;;;16.55;100.00
18918;BME280;9591;52.742;13.650;2023-07-13T03:48:27;100801.22;;;16.51;100.00
18918;BME280;9591;52.742;13.650;2023-07-13T03:51:16;100800.13;;;16.55;100.00
18918;BME280;9591;52.742;13.650;2023-07-13T03:54:04;100786.22;;;16.48;100.00
18918;BME280;9591;52.742;13.650;2023-07-13T03:56:51;100811.81;;;16.69;100.00
18918;BME280;9591;52.742;13.650;2023-07-13T03:59:39;100800.06;;;16.72;100.00
18918;BME280;9591;52.742;13.650;2023-07-13T04:02:26;100810.16;;;16.83;100.00
18918;BME280;9591;52.742;13.650;2023-07-13T04:05:13;100812.84;;;16.83;100.00
18918;BME280;9591;52.742;13.650;2023-07-13T04:08:02;100822.66;;;16.82;100.00
18918;BME280;9591;52.742;13.650;2023-07-13T04:10:52;100809.72;;;16.90;100.00
18918;BME280;9591;52.742;13.650;2023-07-13T04:13:40;100819.72;;;17.02;100.00
18918;BME280;9591;52.742;13.650;2023-07-13T04:16:27;100814.72;;;17.12;100.00
18918;BME280;9591;52.742;13.650;2023-07-13T04:19:14;100825.75;;;17.22;100.00
18918;BME280;9591;52.742;13.650;2023-07-13T04:22:01;100827.13;;;17.43;100.00
18918;BME280;9591;52.742;13.650;2023-07-13T04:24:48;100818.59;;;17.96;100.00
18918;BME280;9591;52.742;13.650;2023-07-13T04:27:36;100814.75;;;18.15;100.00
18918;BME280;9591;52.742;13.650;2023-07-13T04:30:24;100822.28;;;18.37;100.00
18918;BME280;9591;52.742;13.650;2023-07-13T04:33:11;100824.78;;;18.54;100.00
18918;BME280;9591;52.742;13.650;2023-07-13T04:35:58;100829.66;;;18.76;100.00
18918;BME280;9591;52.742;13.650;2023-07-13T04:38:46;100826.16;;;19.02;100.00
18918;BME280;9591;52.742;13.650;2023-07-13T04:41:33;100830.28;;;18.93;100.00
18918;BME280;9591;52.742;13.650;2023-07-13T04:44:21;100834.84;;;19.06;100.00
18918;BME280;9591;52.742;13.650;2023-07-13T04:47:08;100834.59;;;18.96;100.00
18918;BME280;9591;52.742;13.650;2023-07-13T04:49:55;100843.72;;;18.93;100.00
18918;BME280;9591;52.742;13.650;2023-07-13T04:52:42;100841.41;;;19.14;100.00
18918;BME280;9591;52.742;13.650;2023-07-13T04:55:29;100842.81;;;19.20;100.00
18918;BME280;9591;52.742;13.650;2023-07-13T04:58:16;100852.81;;;19.18;100.00
18918;BME280;9591;52.742;13.650;2023-07-13T05:01:05;100845.56;;;19.32;100.00
18918;BME280;9591;52.742;13.650;2023-07-13T05:03:53;100848.56;;;19.55;100.00
18918;BME280;9591;52.742;13.650;2023-07-13T05:06:41;100847.22;;;19.75;100.00
18918;BME280;9591;52.742;13.650;2023-07-13T05:09:28;100850.31;;;19.94;100.00
18918;BME280;9591;52.742;13.650;2023-07-13T05:12:15;100843.56;;;20.14;100.00
18918;BME280;9591;52.742;13.650;2023-07-13T05:15:02;100842.72;;;20.39;99.37
18918;BME280;9591;52.742;13.650;2023-07-13T05:17:50;100847.13;;;20.52;100.00
18918;BME280;9591;52.742;13.650;2023-07-13T05:20:37;100845.81;;;20.94;100.00
18918;BME280;9591;52.742;13.650;2023-07-13T05:23:24;100850.72;;;21.01;99.85
18918;BME280;9591;52.742;13.650;2023-07-13T05:26:11;100846.56;;;21.20;97.57
18918;BME280;9591;52.742;13.650;2023-07-13T05:28:58;100851.31;;;21.17;98.23
18918;BME280;9591;52.742;13.650;2023-07-13T05:31:45;100843.19;;;21.06;99.33
18918;BME280;9591;52.742;13.650;2023-07-13T05:34:33;100854.88;;;21.17;96.91
18918;BME280;9591;52.742;13.650;2023-07-13T05:37:19;100860.69;;;21.24;97.15
18918;BME280;9591;52.742;13.650;2023-07-13T05:40:07;100867.06;;;21.10;96.48
18918;BME280;9591;52.742;13.650;2023-07-13T05:42:54;100856.16;;;21.24;96.13
18918;BME280;9591;52.742;13.650;2023-07-13T05:45:41;100859.50;;;21.28;94.97
18918;BME280;9591;52.742;13.650;2023-07-13T05:48:27;100857.09;;;21.36;94.76
18918;BME280;9591;52.742;13.650;2023-07-13T05:51:15;100860.69;;;21.48;94.67
18918;BME280;9591;52.742;13.650;2023-07-13T05:54:02;100860.41;;;21.75;94.61
18918;BME280;9591;52.742;13.650;2023-07-13T05:56:49;100858.69;;;21.74;94.22
18918;BME280;9591;52.742;13.650;2023-07-13T05:59:36;100870.78;;;21.68;92.54
18918;BME280;9591;52.742;13.650;2023-07-13T06:02:23;100867.78;;;21.84;94.04
18918;BME280;9591;52.742;13.650;2023-07-13T06:05:11;100868.38;;;22.11;90.92
18918;BME280;9591;52.742;13.650;2023-07-13T06:07:59;100872.56;;;22.38;89.52
18918;BME280;9591;52.742;13.650;2023-07-13T06:10:45;100871.09;;;22.34;89.29
18918;BME280;9591;52.742;13.650;2023-07-13T06:13:32;100863.72;;;22.24;89.92
18918;BME280;9591;52.742;13.650;2023-07-13T06:16:19;100870.47;;;22.30;88.09
18918;BME280;9591;52.742;13.650;2023-07-13T06:19:06;100869.88;;;22.27;89.84
18918;BME280;9591;52.742;13.650;2023-07-13T06:21:53;100879.06;;;22.24;91.10
18918;BME280;9591;52.742;13.650;2023-07-13T06:24:43;100869.13;;;22.36;91.44
18918;BME280;9591;52.742;13.650;2023-07-13T06:27:30;100874.03;;;22.19;89.69
18918;BME280;9591;52.742;13.650;2023-07-13T06:30:17;100861.75;;;22.15;90.52
18918;BME280;9591;52.742;13.650;2023-07-13T06:33:04;100859.69;;;22.41;87.25
18918;BME280;9591;52.742;13.650;2023-07-13T06:35:51;100864.50;;;22.49;85.23
18918;BME280;9591;52.742;13.650;2023-07-13T06:38:38;100855.13;;;22.75;82.90
18918;BME280;9591;52.742;13.650;2023-07-13T06:41:26;100859.06;;;22.94;80.44
18918;BME280;9591;52.742;13.650;2023-07-13T06:44:13;100868.53;;;23.31;80.22
18918;BME280;9591;52.742;13.650;2023-07-13T06:47:00;100862.34;;;23.40;80.26
18918;BME280;9591;52.742;13.650;2023-07-13T06:49:47;100861.53;;;23.40;79.54
18918;BME280;9591;52.742;13.650;2023-07-13T06:52:33;100868.34;;;23.55;75.83
18918;BME280;9591;52.742;13.650;2023-07-13T06:55:20;100861.56;;;23.61;75.53
18918;BME280;9591;52.742;13.650;2023-07-13T06:58:09;100866.00;;;23.18;80.91
18918;BME280;9591;52.742;13.650;2023-07-13T07:00:55;100857.28;;;23.15;80.45
18918;BME280;9591;52.742;13.650;2023-07-13T07:03:42;100859.63;;;23.19;79.19
18918;BME280;9591;52.742;13.650;2023-07-13T07:06:29;100849.03;;;23.28;79.85
18918;BME280;9591;52.742;13.650;2023-07-13T07:09:16;100847.94;;;23.51;76.03
18918;BME280;9591;52.742;13.650;2023-07-13T07:12:03;100838.88;;;23.73;77.50
18918;BME280;9591;52.742;13.650;2023-07-13T07:14:51;100841.34;;;23.76;77.57
18918;BME280;9591;52.742;13.650;2023-07-13T07:17:38;100836.44;;;23.70;82.17
18918;BME280;9591;52.742;13.650;2023-07-13T07:20:25;100829.00;;;23.83;81.29
18918;BME280;9591;52.742;13.650;2023-07-13T07:23:12;100835.53;;;23.80;74.29
18918;BME280;9591;52.742;13.650;2023-07-13T07:26:00;100843.38;;;24.04;75.68
18918;BME280;9591;52.742;13.650;2023-07-13T07:28:47;100843.09;;;24.28;70.41
18918;BME280;9591;52.742;13.650;2023-07-13T07:31:54;100835.41;;;24.33;71.46
18918;BME280;9591;52.742;13.650;2023-07-13T07:34:44;100845.78;;;24.59;70.56
18918;BME280;9591;52.742;13.650;2023-07-13T07:37:31;100848.22;;;24.62;69.49
18918;BME280;9591;52.742;13.650;2023-07-13T07:40:21;100850.69;;;24.74;68.19
18918;BME280;9591;52.742;13.650;2023-07-13T07:43:12;100858.22;;;24.71;67.56
18918;BME280;9591;52.742;13.650;2023-07-13T07:45:59;100861.53;;;24.74;65.25
18918;BME280;9591;52.742;13.650;2023-07-13T07:48:53;100859.78;;;24.64;65.10
18918;BME280;9591;52.742;13.650;2023-07-13T07:51:40;100864.50;;;24.71;63.85
18918;BME280;9591;52.742;13.650;2023-07-13T07:54:27;100857.28;;;24.81;62.02
18918;BME280;9591;52.742;13.650;2023-07-13T07:57:33;100861.00;;;24.90;63.74
18918;BME280;9591;52.742;13.650;2023-07-13T08:00:23;100857.53;;;25.09;59.92
18918;BME280;9591;52.742;13.650;2023-07-13T08:03:30;100856.38;;;25.21;58.35
18918;BME280;9591;52.742;13.650;2023-07-13T08:06:38;100841.09;;;25.20;58.74
18918;BME280;9591;52.742;13.650;2023-07-13T08:09:29;100853.25;;;25.45;56.44
18918;BME280;9591;52.742;13.650;2023-07-13T08:12:16;100862.81;;;25.59;55.34
18918;BME280;9591;52.742;13.650;2023-07-13T08:15:23;100862.81;;;25.49;54.80
18918;BME280;9591;52.742;13.650;2023-07-13T08:18:10;100857.97;;;25.43;55.46
18918;BME280;9591;52.742;13.650;2023-07-13T08:20:56;100861.97;;;25.39;54.89
18918;BME280;9591;52.742;13.650;2023-07-13T08:23:45;100859.13;;;25.60;56.06
18918;BME280;9591;52.742;13.650;2023-07-13T08:26:32;100862.84;;;25.88;53.60
18918;BME280;9591;52.742;13.650;2023-07-13T08:29:20;100864.69;;;25.97;51.73
18918;BME280;9591;52.742;13.650;2023-07-13T08:32:08;100866.00;;;25.73;54.18
18918;BME280;9591;52.742;13.650;2023-07-13T08:34:56;100863.25;;;25.44;54.71
18918;BME280;9591;52.742;13.650;2023-07-13T08:37:43;100862.94;;;25.28;57.08
18918;BME280;9591;52.742;13.650;2023-07-13T08:40:31;100874.53;;;25.59;52.20
18918;BME280;9591;52.742;13.650;2023-07-13T08:43:25;100867.41;;;25.68;52.85
18918;BME280;9591;52.742;13.650;2023-07-13T08:46:15;100870.53;;;25.92;49.72
18918;BME280;9591;52.742;13.650;2023-07-13T08:49:05;100875.78;;;26.03;49.00
18918;BME280;9591;52.742;13.650;2023-07-13T08:51:57;100870.81;;;25.99;51.99
18918;BME280;9591;52.742;13.650;2023-07-13T08:54:49;100876.56;;;25.67;56.17
18918;BME280;9591;52.742;13.650;2023-07-13T08:57:39;100876.41;;;25.78;50.78
18918;BME280;9591;52.742;13.650;2023-07-13T09:00:36;100883.84;;;25.86;51.27
18918;BME280;9591;52.742;13.650;2023-07-13T09:03:28;100873.09;;;25.45;54.60
18918;BME280;9591;52.742;13.650;2023-07-13T09:06:17;100883.34;;;25.32;55.97
18918;BME280;9591;52.742;13.650;2023-07-13T09:09:09;100875.09;;;25.63;57.95
18918;BME280;9591;52.742;13.650;2023-07-13T09:12:02;100873.53;;;25.99;55.11
18918;BME280;9591;52.742;13.650;2023-07-13T09:14:57;100849.84;;;25.91;52.60
18918;BME280;9591;52.742;13.650;2023-07-13T09:17:48;100876.00;;;26.29;52.25
18918;BME280;9591;52.742;13.650;2023-07-13T09:20:38;100872.41;;;26.48;51.36
18918;BME280;9591;52.742;13.650;2023-07-13T09:23:29;100881.53;;;26.57;49.70
18918;BME280;9591;52.742;13.650;2023-07-13T09:26:18;100881.94;;;26.89;48.61
18918;BME280;9591;52.742;13.650;2023-07-13T09:29:14;100849.88;;;26.93;47.81
18918;BME280;9591;52.742;13.650;2023-07-13T09:32:07;100874.53;;;26.54;48.47
18918;BME280;9591;52.742;13.650;2023-07-13T09:34:57;100873.56;;;25.89;51.50
18918;BME280;9591;52.742;13.650;2023-07-13T09:37:46;100881.28;;;25.65;51.97
18918;BME280;9591;52.742;13.650;2023-07-13T09:40:40;100879.91;;;26.07;47.23
18918;BME280;9591;52.742;13.650;2023-07-13T09:43:30;100879.03;;;26.26;44.83
18918;BME280;9591;52.742;13.650;2023-07-13T09:46:20;100870.16;;;26.24;44.78
18918;BME280;9591;52.742;13.650;2023-07-13T09:49:11;100870.28;;;26.79;44.71
18918;BME280;9591;52.742;13.650;2023-07-13T09:51:59;100874.72;;;27.07;45.34
18918;BME280;9591;52.742;13.650;2023-07-13T09:54:49;100884.59;;;27.26;44.44
18918;BME280;9591;52.742;13.650;2023-07-13T09:57:47;100873.63;;;26.91;41.79
18918;BME280;9591;52.742;13.650;2023-07-13T10:00:36;100873.63;;;27.18;46.48
18918;BME280;9591;52.742;13.650;2023-07-13T10:03:25;100880.72;;;27.29;43.07
18918;BME280;9591;52.742;13.650;2023-07-13T10:06:15;100875.59;;;27.26;42.54
18918;BME280;9591;52.742;13.650;2023-07-13T10:09:01;100881.72;;;27.28;44.04
18918;BME280;9591;52.742;13.650;2023-07-13T10:11:50;100877.19;;;27.01;43.66
18918;BME280;9591;52.742;13.650;2023-07-13T10:14:37;100888.06;;;26.64;45.58
18918;BME280;9591;52.742;13.650;2023-07-13T10:17:27;100891.56;;;26.47;43.52
18918;BME280;9591;52.742;13.650;2023-07-13T10:20:16;100883.91;;;26.03;42.78
18918;BME280;9591;52.742;13.650;2023-07-13T10:23:10;100892.19;;;26.11;48.73
18918;BME280;9591;52.742;13.650;2023-07-13T10:26:00;100895.06;;;25.62;48.87
18918;BME280;9591;52.742;13.650;2023-07-13T10:28:51;100885.38;;;25.98;46.66
18918;BME280;9591;52.742;13.650;2023-07-13T10:31:38;100889.03;;;26.26;45.51
18918;BME280;9591;52.742;13.650;2023-07-13T10:34:27;100891.13;;;26.51;47.01
18918;BME280;9591;52.742;13.650;2023-07-13T10:37:18;100893.06;;;26.96;46.65
18918;BME280;9591;52.742;13.650;2023-07-13T10:40:13;100897.50;;;27.24;42.52
18918;BME280;9591;52.742;13.650;2023-07-13T10:43:04;100893.41;;;27.38;43.99
18918;BME280;9591;52.742;13.650;2023-07-13T10:45:54;100892.16;;;27.32;42.55
18918;BME280;9591;52.742;13.650;2023-07-13T10:48:43;100900.63;;;27.29;43.52
18918;BME280;9591;52.742;13.650;2023-07-13T10:51:31;100887.03;;;27.47;42.00
18918;BME280;9591;52.742;13.650;2023-07-13T10:54:20;100880.13;;;27.53;44.85
18918;BME280;9591;52.742;13.650;2023-07-13T10:57:17;100860.63;;;27.57;42.94
18918;BME280;9591;52.742;13.650;2023-07-13T11:00:15;100878.19;;;27.45;45.05
18918;BME280;9591;52.742;13.650;2023-07-13T11:03:03;100883.25;;;27.13;48.20
18918;BME280;9591;52.742;13.650;2023-07-13T11:05:51;100879.06;;;26.91;43.20
18918;BME280;9591;52.742;13.650;2023-07-13T11:08:53;100879.78;;;27.20;44.20
18918;BME280;9591;52.742;13.650;2023-07-13T11:11:41;100875.31;;;27.01;41.70
18918;BME280;9591;52.742;13.650;2023-07-13T11:14:34;100878.47;;;27.42;43.68
18918;BME280;9591;52.742;13.650;2023-07-13T11:17:38;100880.50;;;27.58;41.96
18918;BME280;9591;52.742;13.650;2023-07-13T11:20:36;100876.66;;;27.60;38.91
18918;BME280;9591;52.742;13.650;2023-07-13T11:23:30;100875.59;;;27.26;40.80
18918;BME280;9591;52.742;13.650;2023-07-13T11:26:39;100879.72;;;27.30;42.65
18918;BME280;9591;52.742;13.650;2023-07-13T11:29:38;100870.31;;;27.42;44.32
18918;BME280;9591;52.742;13.650;2023-07-13T11:32:30;100865.00;;;27.68;44.01
18918;BME280;9591;52.742;13.650;2023-07-13T11:35:22;100873.19;;;27.76;43.56
18918;BME280;9591;52.742;13.650;2023-07-13T11:38:15;100871.22;;;27.60;40.64
18918;BME280;9591;52.742;13.650;2023-07-13T11:41:05;100858.19;;;27.90;42.56
18918;BME280;9591;52.742;13.650;2023-07-13T11:43:55;100864.22;;;28.01;42.51
18918;BME280;9591;52.742;13.650;2023-07-13T11:46:48;100861.72;;;28.08;43.33
18918;BME280;9591;52.742;13.650;2023-07-13T11:49:42;100858.47;;;28.04;40.80
18918;BME280;9591;52.742;13.650;2023-07-13T11:52:32;100858.94;;;28.00;42.68
18918;BME280;9591;52.742;13.650;2023-07-13T11:55:21;100864.25;;;27.84;45.13
18918;BME280;9591;52.742;13.650;2023-07-13T11:58:10;100860.69;;;27.48;43.47
18918;BME280;9591;52.742;13.650;2023-07-13T12:00:59;100854.78;;;27.34;43.95
18918;BME280;9591;52.742;13.650;2023-07-13T12:03:51;100854.00;;;27.24;46.87
18918;BME280;9591;52.742;13.650;2023-07-13T12:06:39;100856.88;;;27.58;45.76
18918;BME280;9591;52.742;13.650;2023-07-13T12:09:33;100861.84;;;27.45;44.90
18918;BME280;9591;52.742;13.650;2023-07-13T12:12:22;100859.75;;;27.57;43.48
18918;BME280;9591;52.742;13.650;2023-07-13T12:15:11;100866.75;;;27.41;43.08
18918;BME280;9591;52.742;13.650;2023-07-13T12:17:58;100862.31;;;26.95;42.94
18918;BME280;9591;52.742;13.650;2023-07-13T12:20:47;100862.44;;;26.94;43.25
18918;BME280;9591;52.742;13.650;2023-07-13T12:23:35;100865.72;;;26.80;43.40
18918;BME280;9591;52.742;13.650;2023-07-13T12:26:22;100860.22;;;26.62;44.42
18918;BME280;9591;52.742;13.650;2023-07-13T12:29:16;100865.50;;;26.63;44.48
18918;BME280;9591;52.742;13.650;2023-07-13T12:32:08;100865.44;;;27.00;45.00
18918;BME280;9591;52.742;13.650;2023-07-13T12:34:57;100861.38;;;27.32;42.47
18918;BME280;9591;52.742;13.650;2023-07-13T12:37:46;100850.69;;;27.66;44.81
18918;BME280;9591;52.742;13.650;2023-07-13T12:40:35;100863.47;;;27.73;45.38
18918;BME280;9591;52.742;13.650;2023-07-13T12:43:22;100858.88;;;27.92;41.18
18918;BME280;9591;52.742;13.650;2023-07-13T12:46:17;100858.34;;;27.88;41.14
18918;BME280;9591;52.742;13.650;2023-07-13T12:49:06;100855.34;;;27.99;39.28
18918;BME280;9591;52.742;13.650;2023-07-13T12:52:09;100847.16;;;28.17;40.78
18918;BME280;9591;52.742;13.650;2023-07-13T12:55:06;100841.75;;;27.99;42.63
18918;BME280;9591;52.742;13.650;2023-07-13T12:58:03;100850.25;;;27.79;41.35
18918;BME280;9591;52.742;13.650;2023-07-13T13:00:50;100850.53;;;27.50;40.95
18918;BME280;9591;52.742;13.650;2023-07-13T13:03:44;100854.63;;;27.54;42.33
18918;BME280;9591;52.742;13.650;2023-07-13T13:06:32;100855.81;;;27.51;43.98
18918;BME280;9591;52.742;13.650;2023-07-13T13:09:22;100861.47;;;27.40;44.86
18918;BME280;9591;52.742;13.650;2023-07-13T13:12:10;100869.22;;;27.17;46.22
18918;BME280;9591;52.742;13.650;2023-07-13T13:14:59;100866.75;;;27.24;45.14
18918;BME280;9591;52.742;13.650;2023-07-13T13:17:46;100871.72;;;27.28;43.18
18918;BME280;9591;52.742;13.650;2023-07-13T13:20:33;100875.28;;;27.29;43.51
18918;BME280;9591;52.742;13.650;2023-07-13T13:23:20;100869.75;;;27.21;43.29
18918;BME280;9591;52.742;13.650;2023-07-13T13:26:11;100869.47;;;27.41;42.18
18918;BME280;9591;52.742;13.650;2023-07-13T13:29:00;100857.28;;;27.46;42.68
18918;BME280;9591;52.742;13.650;2023-07-13T13:31:47;100856.56;;;27.79;43.60
18918;BME280;9591;52.742;13.650;2023-07-13T13:34:34;100851.78;;;27.73;42.13
18918;BME280;9591;52.742;13.650;2023-07-13T13:37:22;100848.34;;;27.53;39.77
18918;BME280;9591;52.742;13.650;2023-07-13T13:40:14;100852.22;;;27.51;39.12
18918;BME280;9591;52.742;13.650;2023-07-13T13:43:02;100858.22;;;27.72;39.42
18918;BME280;9591;52.742;13.650;2023-07-13T13:45:50;100856.13;;;27.66;39.67
18918;BME280;9591;52.742;13.650;2023-07-13T13:48:37;100860.09;;;27.71;40.44
18918;BME280;9591;52.742;13.650;2023-07-13T13:51:27;100862.97;;;27.70;42.18
18918;BME280;9591;52.742;13.650;2023-07-13T13:54:15;100842.81;;;28.06;40.68
18918;BME280;9591;52.742;13.650;2023-07-13T13:57:03;100855.50;;;28.42;40.75
18918;BME280;9591;52.742;13.650;2023-07-13T13:59:53;100855.63;;;28.32;39.40
18918;BME280;9591;52.742;13.650;2023-07-13T14:02:44;100849.91;;;28.43;37.08
18918;BME280;9591;52.742;13.650;2023-07-13T14:05:33;100856.44;;;28.06;36.06
18918;BME280;9591;52.742;13.650;2023-07-13T14:08:20;100859.16;;;28.06;40.34
18918;BME280;9591;52.742;13.650;2023-07-13T14:11:11;100858.34;;;28.14;38.56
18918;BME280;9591;52.742;13.650;2023-07-13T14:13:59;100857.97;;;28.09;40.35
18918;BME280;9591;52.742;13.650;2023-07-13T14:16:49;100867.97;;;28.00;40.95
18918;BME280;9591;52.742;13.650;2023-07-13T14:19:40;100868.56;;;27.68;40.39
18918;BME280;9591;52.742;13.650;2023-07-13T14:22:27;100866.31;;;27.64;39.52
18918;BME280;9591;52.742;13.650;2023-07-13T14:25:15;100867.19;;;27.64;40.60
18918;BME280;9591;52.742;13.650;2023-07-13T14:28:19;100874.78;;;27.61;41.20
18918;BME280;9591;52.742;13.650;2023-07-13T14:31:06;100875.84;;;27.50;40.61
18918;BME280;9591;52.742;13.650;2023-07-13T14:33:53;100871.41;;;27.49;38.68
18918;BME280;9591;52.742;13.650;2023-07-13T14:36:42;100872.66;;;27.55;41.30
18918;BME280;9591;52.742;13.650;2023-07-13T14:39:31;100882.31;;;27.67;44.00